Time;durP1;ratioP1;P1;durP2;ratioP2;P2;SDS_P1;SDS_P2;PMS_P1;PMS_P2;Temp;Humidity;BMP_temperature;BMP_pressure;BME280_temperature;BME280_humidity;BME280_pressure;Samples;Min_cycle;Max_cycle;Signal;HPM_P1;HPM_P2
2022/03/02 00:01:36;;;;;;;13.40;7.95;;;0.50;75.60;;;;;;5038248;28;20112;-70
2022/03/02 00:04:02;;;;;;;14.95;8.50;;;0.50;75.70;;;;;;5037361;28;20080;-71
2022/03/02 00:06:28;;;;;;;16.08;8.63;;;0.40;75.70;;;;;;5037014;28;20032;-72
2022/03/02 00:08:54;;;;;;;14.00;8.07;;;0.30;76.10;;;;;;5032853;28;20034;-70
2022/03/02 00:11:19;;;;;;;13.45;8.55;;;0.30;76.50;;;;;;5036522;28;20033;-70
2022/03/02 00:13:45;;;;;;;14.45;8.50;;;0.30;76.30;;;;;;5036753;28;20029;-71
2022/03/02 00:16:12;;;;;;;14.80;8.65;;;0.30;76.10;;;;;;5036388;28;20029;-70
2022/03/02 00:18:38;;;;;;;13.85;8.10;;;0.30;75.90;;;;;;5037035;28;20025;-70
2022/03/02 00:21:04;;;;;;;14.00;8.27;;;0.30;75.70;;;;;;5037177;28;20430;-70
2022/03/02 00:23:29;;;;;;;14.50;8.43;;;0.40;75.60;;;;;;5036733;28;20025;-72
2022/03/02 00:25:56;;;;;;;12.98;8.45;;;0.30;75.70;;;;;;5036506;28;20025;-72
2022/03/02 00:28:22;;;;;;;14.23;8.65;;;0.40;75.30;;;;;;5037979;28;20025;-71
2022/03/02 00:30:48;;;;;;;13.07;8.30;;;0.60;74.90;;;;;;5035680;28;20033;-71
2022/03/02 00:33:13;;;;;;;14.98;8.93;;;0.60;74.90;;;;;;5036608;28;20494;-70
2022/03/02 00:35:39;;;;;;;14.75;9.27;;;0.50;75.60;;;;;;5035169;28;20037;-71
2022/03/02 00:38:10;;;;;;;13.63;7.97;;;0.30;76.40;;;;;;5035690;28;20053;-71
2022/03/02 00:40:39;;;;;;;15.13;8.50;;;0.20;77.00;;;;;;5037364;28;20410;-71
2022/03/02 00:43:06;;;;;;;15.25;8.95;;;0.20;77.20;;;;;;5036682;28;20021;-71
2022/03/02 00:45:32;;;;;;;17.33;8.80;;;0.10;77.40;;;;;;5032356;28;20422;-71
2022/03/02 00:47:59;;;;;;;16.40;8.88;;;0.10;77.30;;;;;;5037120;28;20029;-71
2022/03/02 00:50:25;;;;;;;15.40;8.60;;;0.20;77.00;;;;;;5036120;28;20029;-72
2022/03/02 00:52:51;;;;;;;15.05;8.90;;;0.20;76.40;;;;;;5033503;28;20038;-71
2022/03/02 00:55:16;;;;;;;13.95;8.95;;;0.30;76.10;;;;;;5035423;28;20076;-71
2022/03/02 00:57:43;;;;;;;14.98;8.95;;;0.20;76.70;;;;;;5036078;28;20037;-71
2022/03/02 01:00:09;;;;;;;13.63;8.90;;;0.20;76.70;;;;;;5034788;28;20025;-71
2022/03/02 01:02:35;;;;;;;14.30;8.70;;;0.20;77.00;;;;;;5035355;28;20034;-71
2022/03/02 01:05:01;;;;;;;15.05;8.95;;;0.10;77.30;;;;;;5035454;28;20287;-71
2022/03/02 01:07:26;;;;;;;17.58;10.18;;;-0.10;78.30;;;;;;5036653;28;20032;-71
2022/03/02 01:09:52;;;;;;;14.63;8.38;;;-0.30;79.50;;;;;;5036459;28;20060;-71
2022/03/02 01:12:18;;;;;;;14.27;9.35;;;-0.40;79.60;;;;;;5035312;28;20041;-71
2022/03/02 01:14:44;;;;;;;13.75;7.60;;;-0.50;80.20;;;;;;5035814;28;20029;-71
2022/03/02 01:17:10;;;;;;;14.90;9.23;;;-0.70;81.00;;;;;;5036118;28;20142;-71
2022/03/02 01:19:37;;;;;;;14.18;8.40;;;-0.80;81.20;;;;;;5036448;28;20489;-70
2022/03/02 01:22:03;;;;;;;14.75;8.77;;;-0.70;80.70;;;;;;5036522;28;20063;-70
2022/03/02 01:24:28;;;;;;;17.52;9.85;;;-0.70;80.50;;;;;;5036046;28;20326;-71
2022/03/02 01:26:54;;;;;;;15.90;8.45;;;-0.70;80.50;;;;;;5035768;28;20046;-70
2022/03/02 01:29:19;;;;;;;16.40;9.90;;;-0.70;80.50;;;;;;5035138;28;20030;-71
2022/03/02 01:31:45;;;;;;;24.25;11.40;;;-1.00;82.60;;;;;;5035628;28;20418;-71
2022/03/02 01:34:11;;;;;;;19.88;10.75;;;-1.30;83.50;;;;;;5036152;28;20434;-71
2022/03/02 01:36:36;;;;;;;21.45;11.63;;;-1.50;83.60;;;;;;5035857;28;20090;-70
2022/03/02 01:39:02;;;;;;;20.40;11.07;;;-1.60;84.40;;;;;;5035943;28;20357;-70
2022/03/02 01:41:28;;;;;;;19.85;11.23;;;-1.80;85.70;;;;;;5036145;28;20071;-70
2022/03/02 01:43:55;;;;;;;19.75;10.30;;;-1.90;86.60;;;;;;5034083;28;20033;-71
2022/03/02 01:46:21;;;;;;;16.10;10.18;;;-2.10;87.20;;;;;;5035962;28;20044;-70
2022/03/02 01:48:47;;;;;;;18.48;10.82;;;-2.10;87.60;;;;;;5034562;28;20021;-70
2022/03/02 01:51:14;;;;;;;15.00;9.05;;;-2.10;87.20;;;;;;5035715;28;20037;-71
2022/03/02 01:53:40;;;;;;;16.55;9.45;;;-2.10;86.70;;;;;;5035306;28;20033;-70
2022/03/02 01:56:06;;;;;;;20.75;10.13;;;-2.10;86.60;;;;;;5034588;28;20052;-71
2022/03/02 01:58:33;;;;;;;16.15;9.88;;;-2.00;86.60;;;;;;5035998;28;20037;-70
2022/03/02 02:01:00;;;;;;;22.65;11.55;;;-2.00;86.20;;;;;;5034066;28;20387;-70
2022/03/02 02:03:26;;;;;;;18.17;10.00;;;-2.20;87.90;;;;;;5028945;28;20048;-70
2022/03/02 02:05:52;;;;;;;16.85;9.90;;;-2.30;87.60;;;;;;5034831;28;20036;-70
2022/03/02 02:08:18;;;;;;;16.95;9.80;;;-2.40;88.10;;;;;;5036012;28;20014;-71
2022/03/02 02:10:43;;;;;;;14.60;9.23;;;-2.60;88.70;;;;;;5030240;28;20025;-70
2022/03/02 02:13:09;;;;;;;14.23;9.05;;;-2.70;89.30;;;;;;5034921;28;20033;-70
2022/03/02 02:15:35;;;;;;;16.30;9.75;;;-2.70;89.00;;;;;;5034055;28;20022;-70
2022/03/02 02:18:01;;;;;;;17.90;9.48;;;-2.70;89.10;;;;;;5034717;28;20422;-70
2022/03/02 02:20:27;;;;;;;13.77;8.50;;;-2.60;88.70;;;;;;5033314;28;20434;-70
2022/03/02 02:22:53;;;;;;;14.70;8.55;;;-2.50;88.60;;;;;;5035076;28;20037;-71
2022/03/02 02:25:19;;;;;;;13.25;8.82;;;-2.20;87.20;;;;;;5035557;28;20022;-70
2022/03/02 02:27:47;;;;;;;16.10;7.57;;;-1.90;85.60;;;;;;5034115;28;20047;-71
2022/03/02 02:30:14;;;;;;;14.20;8.55;;;-1.60;84.20;;;;;;5032225;28;20099;-70
2022/03/02 02:32:41;;;;;;;17.13;8.88;;;-1.40;83.10;;;;;;5037257;28;20043;-70
2022/03/02 02:35:09;;;;;;;12.73;8.02;;;-1.20;82.30;;;;;;5042648;28;20507;-71
2022/03/02 02:37:36;;;;;;;15.70;7.95;;;-1.10;81.50;;;;;;5033445;28;20037;-71
2022/03/02 02:40:09;;;;;;;14.75;8.02;;;-1.10;81.20;;;;;;5034840;28;20040;-71
2022/03/02 02:42:41;;;;;;;14.10;7.93;;;-1.10;80.80;;;;;;5035461;28;20101;-71
2022/03/02 02:45:07;;;;;;;18.40;8.00;;;-1.00;80.00;;;;;;5034406;28;20033;-71
2022/03/02 02:47:33;;;;;;;13.60;7.85;;;-0.90;79.60;;;;;;5040189;28;20053;-70
2022/03/02 02:49:58;;;;;;;17.08;8.00;;;-0.80;79.10;;;;;;5040792;28;20109;-70
2022/03/02 02:52:24;;;;;;;13.10;8.07;;;-0.90;79.70;;;;;;5041373;28;20377;-70
2022/03/02 02:54:56;;;;;;;15.20;8.73;;;-0.90;80.30;;;;;;5040005;28;20120;-70
2022/03/02 02:57:21;;;;;;;14.32;9.25;;;-1.00;80.50;;;;;;5037124;28;20319;-71
2022/03/02 02:59:47;;;;;;;17.15;9.50;;;-1.10;81.10;;;;;;5028342;28;20029;-71
2022/03/02 03:02:13;;;;;;;14.65;9.15;;;-1.30;81.90;;;;;;5034762;28;20436;-70
2022/03/02 03:04:38;;;;;;;14.73;8.95;;;-1.50;83.50;;;;;;5037551;28;20044;-70
2022/03/02 03:07:04;;;;;;;15.40;9.25;;;-1.60;84.00;;;;;;5040794;28;20040;-70
2022/03/02 03:09:32;;;;;;;15.73;9.73;;;-1.60;84.20;;;;;;5030531;28;20035;-70
2022/03/02 03:12:01;;;;;;;18.70;10.30;;;-1.60;84.10;;;;;;5048147;28;20404;-71
2022/03/02 03:14:27;;;;;;;16.42;9.57;;;-1.50;83.70;;;;;;5038985;28;20418;-70
2022/03/02 03:16:52;;;;;;;18.90;9.98;;;-1.40;83.30;;;;;;5040927;28;20087;-70
2022/03/02 03:19:18;;;;;;;13.75;8.80;;;-1.50;83.30;;;;;;5040912;28;20022;-71
2022/03/02 03:21:44;;;;;;;16.02;8.95;;;-1.70;84.10;;;;;;5040981;28;20415;-71
2022/03/02 03:24:09;;;;;;;16.17;9.07;;;-1.80;84.60;;;;;;5040903;28;20037;-72
2022/03/02 03:26:35;;;;;;;17.13;9.38;;;-2.00;85.00;;;;;;5041194;28;20451;-71
2022/03/02 03:29:00;;;;;;;17.45;9.95;;;-2.10;85.70;;;;;;5039565;28;20029;-71
2022/03/02 03:31:26;;;;;;;20.55;10.50;;;-2.20;86.30;;;;;;5041357;28;20453;-71
2022/03/02 03:33:52;;;;;;;17.35;10.80;;;-2.10;86.50;;;;;;5039712;28;20425;-70
2022/03/02 03:36:17;;;;;;;18.80;9.77;;;-2.20;87.20;;;;;;5039776;28;20497;-71
2022/03/02 03:38:44;;;;;;;19.63;11.55;;;-2.10;86.80;;;;;;5041150;28;20092;-70
2022/03/02 03:41:10;;;;;;;14.68;9.07;;;-2.00;85.90;;;;;;5039987;28;20116;-70
2022/03/02 03:43:36;;;;;;;16.80;10.00;;;-1.80;85.30;;;;;;5039888;28;20491;-70
2022/03/02 03:46:01;;;;;;;15.38;9.88;;;-2.00;85.20;;;;;;5037041;28;20048;-71
2022/03/02 03:48:27;;;;;;;17.58;10.23;;;-2.20;85.80;;;;;;5039658;28;20025;-70
2022/03/02 03:50:53;;;;;;;19.17;10.65;;;-2.50;86.40;;;;;;5040079;28;20321;-71
2022/03/02 03:53:19;;;;;;;16.63;10.60;;;-2.70;87.40;;;;;;5040871;28;20486;-70
2022/03/02 03:55:44;;;;;;;17.65;10.95;;;-2.80;88.40;;;;;;5040255;28;20033;-70
2022/03/02 03:58:10;;;;;;;20.88;10.13;;;-2.80;89.00;;;;;;5037104;28;20041;-71
2022/03/02 04:00:35;;;;;;;18.42;10.75;;;-2.80;88.70;;;;;;5035843;28;20064;-70
2022/03/02 04:03:01;;;;;;;18.15;11.50;;;-2.80;88.90;;;;;;5037950;28;20080;-70
2022/03/02 04:05:27;;;;;;;18.05;11.20;;;-2.80;89.10;;;;;;5036921;28;20021;-70
2022/03/02 04:07:52;;;;;;;18.48;11.07;;;-2.80;89.20;;;;;;5037624;28;20021;-71
2022/03/02 04:10:18;;;;;;;20.52;11.02;;;-2.90;90.00;;;;;;5037900;28;20025;-70
2022/03/02 04:12:45;;;;;;;17.80;10.90;;;-3.00;90.50;;;;;;5037353;28;20029;-70
2022/03/02 04:15:11;;;;;;;19.25;11.50;;;-3.00;91.10;;;;;;5034400;28;20061;-71
2022/03/02 04:17:38;;;;;;;19.38;10.40;;;-3.00;91.40;;;;;;5037360;28;20104;-71
2022/03/02 04:20:07;;;;;;;18.75;11.70;;;-3.10;91.40;;;;;;5035666;28;20056;-70
2022/03/02 04:22:33;;;;;;;23.45;11.57;;;-3.20;91.90;;;;;;5036698;28;20027;-70
2022/03/02 04:24:58;;;;;;;18.35;11.70;;;-3.30;92.10;;;;;;5036097;28;20022;-71
2022/03/02 04:27:24;;;;;;;17.77;11.23;;;-3.40;92.30;;;;;;5037344;28;20080;-70
2022/03/02 04:29:50;;;;;;;20.52;11.70;;;-3.60;92.80;;;;;;5034971;28;20033;-71
2022/03/02 04:32:16;;;;;;;18.73;10.48;;;-3.80;93.20;;;;;;5036788;28;20059;-70
2022/03/02 04:34:41;;;;;;;21.13;10.90;;;-3.80;93.90;;;;;;5037909;28;20032;-71
2022/03/02 04:37:08;;;;;;;23.05;11.43;;;-3.60;94.20;;;;;;5036302;28;20329;-71
2022/03/02 04:39:34;;;;;;;20.95;11.27;;;-3.50;93.70;;;;;;5036243;28;20036;-71
2022/03/02 04:42:00;;;;;;;20.52;10.70;;;-3.50;93.60;;;;;;5035805;28;20101;-70
2022/03/02 04:44:25;;;;;;;22.13;12.73;;;-3.30;92.80;;;;;;5034892;28;20060;-70
2022/03/02 04:46:51;;;;;;;21.23;12.00;;;-3.40;93.00;;;;;;5035567;28;20033;-71
2022/03/02 04:49:18;;;;;;;19.92;11.45;;;-3.50;93.70;;;;;;5036065;28;20345;-70
2022/03/02 04:51:48;;;;;;;22.55;10.73;;;-3.50;93.80;;;;;;5035783;28;20109;-70
2022/03/02 04:57:02;;;;;;;18.65;10.80;;;-3.30;93.10;;;;;;5039828;28;20111;-71
2022/03/02 04:59:28;;;;;;;24.75;12.00;;;-2.90;91.90;;;;;;5033564;28;20319;-71
2022/03/02 05:01:54;;;;;;;21.38;12.38;;;-2.70;90.70;;;;;;5035670;28;20033;-71
2022/03/02 05:04:20;;;;;;;17.13;9.90;;;-2.50;90.20;;;;;;5036432;28;20017;-71
2022/03/02 05:06:51;;;;;;;18.88;10.70;;;-2.30;89.10;;;;;;5035906;28;20072;-71
2022/03/02 05:09:17;;;;;;;24.55;13.27;;;-2.20;88.80;;;;;;5034795;28;20029;-71
2022/03/02 05:11:42;;;;;;;19.88;11.90;;;-2.30;89.20;;;;;;5033822;28;20104;-71
2022/03/02 05:14:08;;;;;;;21.90;11.10;;;-2.50;89.80;;;;;;5035258;28;20036;-71
2022/03/02 05:16:33;;;;;;;21.88;12.32;;;-2.60;90.20;;;;;;5035731;28;20026;-71
2022/03/02 05:18:59;;;;;;;22.67;11.45;;;-2.50;89.90;;;;;;5035215;28;20053;-71
2022/03/02 05:21:25;;;;;;;19.52;11.02;;;-2.30;89.80;;;;;;5034966;28;20028;-71
2022/03/02 05:23:50;;;;;;;17.35;10.30;;;-2.10;88.90;;;;;;5034846;28;20033;-71
2022/03/02 05:26:16;;;;;;;18.17;9.93;;;-1.90;87.90;;;;;;5034853;28;20434;-71
2022/03/02 05:28:42;;;;;;;17.90;10.07;;;-1.80;87.40;;;;;;5035092;28;20076;-71
2022/03/02 05:31:08;;;;;;;20.30;10.88;;;-1.50;86.40;;;;;;5035220;28;20021;-71
2022/03/02 05:33:34;;;;;;;21.02;10.90;;;-1.40;85.60;;;;;;5035537;28;20032;-71
2022/03/02 05:35:59;;;;;;;19.70;10.70;;;-1.40;85.50;;;;;;5035591;28;20503;-71
2022/03/02 05:38:25;;;;;;;19.40;11.35;;;-1.40;85.30;;;;;;5035596;28;20025;-71
2022/03/02 05:40:51;;;;;;;19.48;10.57;;;-1.30;84.90;;;;;;5035103;28;20033;-71
2022/03/02 05:43:17;;;;;;;21.23;10.52;;;-1.30;84.30;;;;;;5033895;28;20414;-71
2022/03/02 05:45:42;;;;;;;20.20;10.63;;;-1.30;84.00;;;;;;5029071;28;20036;-71
2022/03/02 05:48:09;;;;;;;21.27;10.93;;;-1.20;84.10;;;;;;5035810;28;20028;-71
2022/03/02 05:50:34;;;;;;;17.25;10.07;;;-1.20;84.10;;;;;;5034288;28;20029;-71
2022/03/02 05:53:00;;;;;;;20.13;10.77;;;-1.30;84.50;;;;;;5034002;28;20116;-70
2022/03/02 05:55:26;;;;;;;19.05;10.57;;;-1.30;84.70;;;;;;5034112;28;20025;-71
2022/03/02 05:57:51;;;;;;;18.25;11.07;;;-1.30;84.50;;;;;;5034536;28;20028;-71
2022/03/02 06:00:17;;;;;;;17.95;9.77;;;-1.40;84.80;;;;;;5034360;28;20395;-71
2022/03/02 06:02:43;;;;;;;17.50;9.65;;;-1.40;84.90;;;;;;5035673;28;20112;-70
2022/03/02 06:05:11;;;;;;;17.75;10.80;;;-1.30;84.20;;;;;;5033779;28;20064;-70
2022/03/02 06:07:38;;;;;;;21.15;11.38;;;-1.20;83.90;;;;;;5034787;28;20100;-70
2022/03/02 06:10:04;;;;;;;21.15;10.95;;;-1.20;83.90;;;;;;5033857;28;20029;-70
2022/03/02 06:12:31;;;;;;;21.13;11.00;;;-1.20;84.10;;;;;;5034842;28;20025;-72
2022/03/02 06:14:57;;;;;;;17.98;10.10;;;-1.20;84.40;;;;;;5032429;28;20029;-72
2022/03/02 06:17:23;;;;;;;25.30;13.27;;;-1.20;84.60;;;;;;5034363;28;20034;-71
2022/03/02 06:19:49;;;;;;;21.63;10.77;;;-1.20;83.60;;;;;;5033860;28;20034;-71
2022/03/02 06:22:19;;;;;;;18.80;10.55;;;-1.10;84.00;;;;;;5034096;28;20105;-71
2022/03/02 06:24:45;;;;;;;18.98;11.23;;;-1.10;84.60;;;;;;5029305;28;20032;-71
2022/03/02 06:27:11;;;;;;;23.10;10.90;;;-1.10;84.70;;;;;;5035691;28;20038;-72
2022/03/02 06:29:38;;;;;;;20.55;11.50;;;-0.90;84.40;;;;;;5033717;28;20023;-72
2022/03/02 06:32:04;;;;;;;20.25;11.27;;;-0.80;84.10;;;;;;5036138;28;20022;-72
2022/03/02 06:34:30;;;;;;;18.38;10.40;;;-0.70;83.60;;;;;;5034686;28;20232;-71
2022/03/02 06:36:55;;;;;;;18.70;10.52;;;-0.60;83.00;;;;;;5034857;28;20108;-71
2022/03/02 06:39:22;;;;;;;19.90;10.45;;;-0.40;82.40;;;;;;5034767;28;20041;-71
2022/03/02 06:42:05;;;;;;;22.50;12.52;;;-0.30;84.00;;;;;;5034867;28;20384;-70
2022/03/02 06:44:43;;;;;;;36.17;19.05;;;-0.20;82.80;;;;;;5031419;28;20025;-70
2022/03/02 06:47:10;;;;;;;70.30;37.17;;;-0.30;82.60;;;;;;5034613;28;20430;-71
2022/03/02 06:50:05;;;;;;;54.22;27.73;;;-0.20;81.90;;;;;;5035123;28;20362;-71
2022/03/02 06:52:52;;;;;;;39.15;21.20;;;-0.30;81.60;;;;;;5034671;28;20022;-71
2022/03/02 06:55:17;;;;;;;33.90;19.52;;;-0.20;81.80;;;;;;5035142;28;20036;-71
2022/03/02 06:57:51;;;;;;;39.65;19.77;;;-0.20;81.70;;;;;;5035811;28;20025;-70
2022/03/02 07:00:17;;;;;;;;;;;-0.20;82.10;;;;;;5030514;28;20104;-71
2022/03/02 07:02:49;;;;;;;34.53;18.30;;;-0.10;82.60;;;;;;5035000;28;20083;-70
2022/03/02 07:05:16;;;;;;;32.60;19.25;;;-0.10;82.70;;;;;;5034584;28;20422;-72
2022/03/02 07:07:42;;;;;;;30.15;17.67;;;0.00;82.40;;;;;;5035364;28;20458;-72
2022/03/02 07:10:09;;;;;;;29.67;15.40;;;0.00;82.60;;;;;;5034880;28;20147;-71
2022/03/02 07:12:37;;;;;;;31.80;15.73;;;0.20;81.80;;;;;;5021824;28;20060;-70
2022/03/02 07:15:04;;;;;;;25.98;14.82;;;0.20;81.40;;;;;;5031811;28;20025;-70
2022/03/02 07:17:32;;;;;;;22.15;13.43;;;0.30;81.10;;;;;;5034833;28;20029;-70
2022/03/02 07:20:04;;;;;;;28.48;15.15;;;0.40;81.20;;;;;;5034789;28;20029;-70
2022/03/02 07:22:36;;;;;;;22.92;13.20;;;0.60;81.40;;;;;;5034940;28;20403;-72
2022/03/02 07:25:11;;;;;;;23.70;14.27;;;0.80;81.10;;;;;;5035326;28;20025;-71
2022/03/02 07:27:38;;;;;;;24.02;14.00;;;1.00;81.50;;;;;;5031075;28;20034;-71
2022/03/02 07:30:06;;;;;;;28.88;13.77;;;1.30;81.40;;;;;;5034093;28;20354;-71
2022/03/02 07:32:35;;;;;;;21.90;12.45;;;1.30;82.90;;;;;;5037145;28;20109;-70
2022/03/02 07:35:03;;;;;;;19.67;12.35;;;1.40;83.80;;;;;;5038462;28;20038;-71
2022/03/02 07:37:30;;;;;;;38.00;19.75;;;1.70;83.60;;;;;;5038936;28;20600;-71
2022/03/02 07:39:56;;;;;;;52.75;28.63;;;1.90;82.20;;;;;;5038740;28;20045;-70
2022/03/02 07:42:22;;;;;;;33.33;19.92;;;1.60;80.00;;;;;;5036658;28;20021;-70
2022/03/02 07:44:50;;;;;;;32.17;17.45;;;1.30;80.60;;;;;;5037160;28;20087;-71
2022/03/02 07:47:17;;;;;;;26.33;15.88;;;0.70;80.80;;;;;;5038789;28;20333;-70
2022/03/02 07:49:43;;;;;;;32.70;17.13;;;0.50;81.50;;;;;;5035054;28;20131;-70
2022/03/02 07:52:10;;;;;;;31.15;17.52;;;0.20;81.40;;;;;;5037787;28;20048;-70
2022/03/02 07:54:41;;;;;;;28.95;16.10;;;0.10;81.80;;;;;;5036989;28;20030;-70
2022/03/02 07:57:08;;;;;;;31.05;16.05;;;0.10;82.40;;;;;;5038129;28;20049;-70
2022/03/02 07:59:40;;;;;;;26.02;16.30;;;0.30;82.50;;;;;;5036506;28;20439;-70
2022/03/02 08:02:09;;;;;;;26.77;16.15;;;0.50;82.10;;;;;;5037364;28;20379;-70
2022/03/02 08:04:36;;;;;;;29.98;15.77;;;0.80;81.90;;;;;;5038839;28;20422;-71
2022/03/02 08:07:02;;;;;;;26.65;15.60;;;1.00;80.80;;;;;;5036964;28;20026;-70
2022/03/02 08:09:28;;;;;;;24.10;14.90;;;1.30;80.60;;;;;;5037313;28;20075;-70
2022/03/02 08:11:58;;;;;;;24.65;15.23;;;1.50;79.70;;;;;;5037990;28;20025;-70
2022/03/02 08:14:24;;;;;;;27.25;16.85;;;1.60;79.20;;;;;;5036687;28;20013;-71
2022/03/02 08:16:54;;;;;;;25.75;14.27;;;1.50;79.20;;;;;;5037924;28;20029;-70
2022/03/02 08:19:21;;;;;;;23.48;12.98;;;1.30;79.10;;;;;;5037741;28;20044;-71
2022/03/02 08:21:57;;;;;;;22.70;14.43;;;1.20;79.60;;;;;;5037111;28;20032;-70
2022/03/02 08:24:26;;;;;;;25.25;13.18;;;1.50;79.10;;;;;;5035515;28;20335;-71
2022/03/02 08:26:54;;;;;;;26.67;14.40;;;1.80;78.20;;;;;;5036801;28;20041;-71
2022/03/02 08:29:22;;;;;;;21.52;12.52;;;2.30;77.80;;;;;;5036583;28;20027;-70
2022/03/02 08:31:49;;;;;;;23.27;14.57;;;2.40;77.20;;;;;;5036479;28;20084;-71
2022/03/02 08:34:15;;;;;;;24.73;14.05;;;2.80;76.20;;;;;;5040745;28;20048;-70
2022/03/02 08:36:43;;;;;;;25.67;14.35;;;3.10;75.50;;;;;;5037080;28;20045;-71
2022/03/02 08:39:13;;;;;;;26.27;13.68;;;3.50;75.00;;;;;;5038368;28;20079;-70
2022/03/02 08:41:39;;;;;;;26.00;14.25;;;3.60;74.20;;;;;;5037837;28;20033;-70
2022/03/02 08:44:06;;;;;;;27.73;16.00;;;3.60;74.10;;;;;;5055089;28;20035;-70
2022/03/02 08:46:32;;;;;;;22.52;14.40;;;3.70;74.70;;;;;;5047567;28;20021;-70
2022/03/02 08:48:58;;;;;;;23.55;14.05;;;3.80;74.30;;;;;;5042225;28;20076;-71
2022/03/02 08:51:26;;;;;;;25.35;16.15;;;4.20;73.60;;;;;;5039105;28;20385;-70
2022/03/02 08:53:59;;;;;;;27.23;15.98;;;4.30;72.50;;;;;;5041729;28;20026;-70
2022/03/02 08:56:25;;;;;;;59.33;26.63;;;4.10;72.60;;;;;;5037415;28;20108;-70
2022/03/02 08:58:52;;;;;;;41.10;21.63;;;4.10;72.60;;;;;;5035908;28;20022;-70
2022/03/02 09:01:19;;;;;;;29.92;17.50;;;3.70;72.40;;;;;;5038818;28;20067;-69
2022/03/02 09:03:48;;;;;;;26.65;15.75;;;3.50;73.50;;;;;;5036038;28;20292;-69
2022/03/02 09:06:15;;;;;;;26.92;15.30;;;3.90;73.90;;;;;;5036115;28;20021;-69
2022/03/02 09:08:41;;;;;;;22.83;14.38;;;4.20;72.50;;;;;;5038561;28;20036;-70
2022/03/02 09:11:08;;;;;;;20.67;11.70;;;4.30;72.20;;;;;;5038725;28;20025;-70
2022/03/02 09:13:36;;;;;;;23.52;13.32;;;4.70;71.80;;;;;;5034790;28;20032;-70
2022/03/02 09:16:06;;;;;;;23.05;14.02;;;5.30;71.00;;;;;;5033524;28;20025;-70
2022/03/02 09:18:32;;;;;;;24.48;14.57;;;5.80;69.50;;;;;;5035020;28;20108;-70
2022/03/02 09:21:02;;;;;;;25.95;14.32;;;6.60;68.30;;;;;;5035780;28;20446;-70
2022/03/02 09:23:34;;;;;;;25.75;14.63;;;7.20;66.30;;;;;;5035057;28;20025;-70
2022/03/02 09:26:08;;;;;;;24.42;13.85;;;6.90;65.80;;;;;;5035238;28;20060;-71
2022/03/02 09:28:38;;;;;;;21.95;14.18;;;6.70;66.50;;;;;;5035410;28;20104;-70
2022/03/02 09:31:06;;;;;;;21.30;14.07;;;6.90;66.50;;;;;;5034394;28;20029;-70
2022/03/02 09:33:34;;;;;;;26.05;16.13;;;7.20;66.30;;;;;;5034195;28;20045;-70
2022/03/02 09:36:05;;;;;;;26.35;15.63;;;7.10;66.30;;;;;;5034307;28;20108;-70
2022/03/02 09:38:33;;;;;;;23.98;14.30;;;6.90;67.10;;;;;;5035026;28;20021;-70
2022/03/02 09:41:12;;;;;;;23.58;14.40;;;7.00;68.30;;;;;;5035560;28;20033;-70
2022/03/02 09:43:45;;;;;;;21.48;14.43;;;7.40;67.20;;;;;;5033696;28;20052;-70
2022/03/02 09:46:16;;;;;;;22.67;14.13;;;7.60;67.30;;;;;;5036899;28;20071;-70
2022/03/02 09:48:48;;;;;;;21.92;13.80;;;7.60;66.60;;;;;;5036441;28;20048;-70
2022/03/02 09:51:21;;;;;;;27.60;16.48;;;7.70;66.80;;;;;;5036791;28;20421;-70
2022/03/02 09:53:49;;;;;;;27.45;17.38;;;7.60;66.60;;;;;;5036491;28;20037;-70
2022/03/02 09:56:17;;;;;;;24.13;15.95;;;7.30;66.50;;;;;;5035697;28;20036;-70
2022/03/02 09:58:49;;;;;;;22.83;14.65;;;7.00;67.20;;;;;;5035045;28;20377;-70
2022/03/02 10:01:15;;;;;;;23.67;15.02;;;6.90;67.40;;;;;;5036414;28;20065;-70
2022/03/02 10:03:46;;;;;;;22.27;14.18;;;6.60;67.60;;;;;;5035184;28;20503;-70
2022/03/02 10:06:13;;;;;;;24.42;13.68;;;6.70;67.90;;;;;;5036207;28;20034;-70
2022/03/02 10:08:51;;;;;;;22.35;14.75;;;6.80;67.70;;;;;;5036538;28;20068;-70
2022/03/02 10:11:26;;;;;;;26.23;15.82;;;6.80;67.90;;;;;;5036129;28;20025;-70
2022/03/02 10:13:56;;;;;;;24.63;14.88;;;6.80;67.60;;;;;;5035074;28;20021;-70
2022/03/02 10:16:25;;;;;;;27.05;15.77;;;6.70;67.20;;;;;;5036109;28;20110;-70
2022/03/02 10:18:59;;;;;;;28.83;16.35;;;6.60;67.50;;;;;;5036364;28;20036;-70
2022/03/02 10:21:40;;;;;;;;;;;6.20;68.20;;;;;;5036199;28;20049;-70
2022/03/02 10:24:13;;;;;;;28.08;15.23;;;6.10;69.40;;;;;;5032549;28;19935;-69
2022/03/02 10:26:50;;;;;;;26.10;15.75;;;6.30;69.70;;;;;;5035680;28;20076;-69
2022/03/02 10:29:25;;;;;;;28.15;16.20;;;6.20;69.80;;;;;;5035060;28;20300;-70
2022/03/02 10:32:17;;;;;;;27.63;16.83;;;6.00;69.70;;;;;;5035622;28;20033;-69
2022/03/02 10:34:51;;;;;;;25.17;16.27;;;5.70;71.10;;;;;;5036021;28;20029;-69
2022/03/02 10:37:19;;;;;;;28.23;17.63;;;5.70;71.50;;;;;;5035590;28;20075;-69
2022/03/02 10:40:09;;;;;;;28.92;18.05;;;5.70;72.10;;;;;;5035949;28;20106;-70
2022/03/02 10:42:40;;;;;;;29.40;17.85;;;5.70;71.70;;;;;;5034605;28;20365;-69
2022/03/02 10:45:24;;;;;;;34.15;20.90;;;5.90;71.30;;;;;;5034740;28;20021;-70
2022/03/02 10:48:09;;;;;;;34.65;20.38;;;5.80;72.00;;;;;;5031703;28;20060;-69
2022/03/02 10:50:36;;;;;;;31.42;19.00;;;6.00;71.50;;;;;;5035999;28;20025;-70
2022/03/02 10:53:04;;;;;;;28.65;18.38;;;6.00;71.40;;;;;;5035285;28;20112;-70
2022/03/02 10:55:35;;;;;;;30.70;18.67;;;6.00;70.90;;;;;;5035964;28;20064;-70
2022/03/02 10:58:05;;;;;;;31.98;18.63;;;6.10;71.30;;;;;;5035628;28;20033;-70
2022/03/02 11:00:32;;;;;;;27.83;18.35;;;6.40;70.90;;;;;;5032251;28;20096;-70
2022/03/02 11:02:59;;;;;;;31.55;18.42;;;6.80;70.50;;;;;;5034810;28;20422;-70
2022/03/02 11:05:28;;;;;;;34.60;19.73;;;6.80;70.00;;;;;;5035407;28;20021;-70
2022/03/02 11:07:54;;;;;;;29.27;19.23;;;7.00;69.00;;;;;;5038433;28;20422;-70
2022/03/02 11:10:22;;;;;;;31.85;19.42;;;7.30;68.40;;;;;;5039366;28;20025;-70
2022/03/02 11:12:51;;;;;;;30.77;19.83;;;7.70;67.10;;;;;;5039576;28;20025;-71
2022/03/02 11:15:18;;;;;;;29.98;18.70;;;8.00;66.50;;;;;;5038222;28;20053;-71
2022/03/02 11:18:00;;;;;;;30.10;18.05;;;8.80;65.40;;;;;;5039205;28;20029;-71
2022/03/02 11:20:29;;;;;;;27.80;17.00;;;9.30;63.70;;;;;;5039407;28;20060;-71
2022/03/02 11:23:05;;;;;;;30.70;18.10;;;9.50;62.70;;;;;;5039120;28;20025;-71
2022/03/02 11:25:49;;;;;;;24.95;15.80;;;9.10;62.30;;;;;;5039574;28;20406;-70
2022/03/02 11:28:17;;;;;;;20.98;13.55;;;9.20;62.30;;;;;;5038050;28;20429;-71
2022/03/02 11:30:48;;;;;;;21.27;14.48;;;9.00;62.50;;;;;;5038314;28;20022;-70
2022/03/02 11:33:15;;;;;;;24.17;15.13;;;8.40;62.60;;;;;;5038322;28;20083;-71
2022/03/02 11:35:42;;;;;;;25.48;15.82;;;8.00;62.70;;;;;;5039230;28;20028;-71
2022/03/02 11:38:08;;;;;;;30.13;16.90;;;7.80;63.60;;;;;;5037616;28;20311;-71
2022/03/02 11:40:41;;;;;;;22.10;14.48;;;7.80;63.40;;;;;;5039060;28;20028;-71
2022/03/02 11:43:15;;;;;;;23.92;16.25;;;7.50;64.50;;;;;;5039116;28;20096;-71
2022/03/02 11:45:41;;;;;;;25.10;15.95;;;7.60;64.60;;;;;;5037727;28;20033;-71
2022/03/02 11:48:15;;;;;;;23.10;14.60;;;7.60;64.20;;;;;;5039128;28;20025;-71
2022/03/02 11:51:06;;;;;;;24.23;14.75;;;7.40;64.80;;;;;;5038715;28;20030;-71
2022/03/02 11:53:38;;;;;;;26.88;15.13;;;7.50;65.30;;;;;;5037768;28;20124;-70
2022/03/02 11:56:05;;;;;;;28.92;17.70;;;7.40;65.40;;;;;;5038733;28;20026;-70
2022/03/02 11:59:09;;;;;;;21.80;13.77;;;7.50;65.20;;;;;;5038732;28;20026;-70
2022/03/02 12:01:47;;;;;;;25.88;16.35;;;7.30;65.40;;;;;;5017879;28;20051;-70
2022/03/02 12:04:14;;;;;;;21.42;14.77;;;7.40;66.00;;;;;;5022305;28;20367;-72
2022/03/02 12:06:45;;;;;;;29.02;16.10;;;7.40;65.60;;;;;;5038503;28;20433;-71
2022/03/02 12:09:28;;;;;;;25.65;15.48;;;7.40;65.60;;;;;;5038221;28;20464;-72
2022/03/02 12:12:10;;;;;;;23.75;14.25;;;7.70;65.10;;;;;;5038611;28;20025;-71
2022/03/02 12:14:56;;;;;;;24.92;14.55;;;7.70;65.30;;;;;;5037182;28;20025;-72
2022/03/02 12:17:33;;;;;;;25.10;15.55;;;7.70;66.00;;;;;;5038707;28;20112;-72
2022/03/02 12:20:08;;;;;;;28.60;16.75;;;7.60;66.10;;;;;;5036803;28;20033;-72
2022/03/02 12:22:39;;;;;;;24.42;14.98;;;7.80;66.40;;;;;;5038316;28;20029;-71
2022/03/02 12:25:06;;;;;;;26.67;14.23;;;7.90;66.10;;;;;;5038154;28;20029;-72
2022/03/02 12:27:32;;;;;;;21.40;13.23;;;8.00;65.80;;;;;;5037093;28;20645;-71
2022/03/02 12:30:03;;;;;;;20.23;12.27;;;8.30;63.10;;;;;;5036610;28;20105;-71
2022/03/02 12:32:31;;;;;;;25.17;14.90;;;8.40;60.30;;;;;;5038087;28;20041;-71
2022/03/02 12:34:59;;;;;;;35.85;21.75;;;8.50;62.30;;;;;;5037959;28;20029;-71
2022/03/02 12:37:25;;;;;;;24.45;15.02;;;8.60;63.40;;;;;;5038260;28;20437;-71
2022/03/02 12:39:52;;;;;;;27.15;15.65;;;8.80;62.50;;;;;;5037678;28;20029;-71
2022/03/02 12:42:18;;;;;;;24.88;16.15;;;8.60;64.10;;;;;;5037067;28;20100;-71
2022/03/02 12:44:54;;;;;;;24.05;15.13;;;8.90;64.40;;;;;;5036225;28;20029;-71